Time;durP1;ratioP1;P1;durP2;ratioP2;P2;SDS_P1;SDS_P2;PMS_P1;PMS_P2;Temp;Humidity;BMP_temperature;BMP_pressure;BME280_temperature;BME280_humidity;BME280_pressure;Samples;Min_cycle;Max_cycle;Signal;HPM_P1;HPM_P2
2023/05/04 00:01:56;;;;;;;10.63;4.80;;;;;;;;;;5051912;28;20398;-72
2023/05/04 00:04:22;;;;;;;9.57;5.18;;;;;;;;;;5040629;28;20038;-73
2023/05/04 00:06:48;;;;;;;10.07;4.72;;;;;;;;;;5037664;28;20522;-72
2023/05/04 00:09:15;;;;;;;7.78;4.85;;;;;;;;;;5046208;28;20030;-71
2023/05/04 00:11:41;;;;;;;7.25;5.22;;;;;;;;;;5047767;28;20483;-73
2023/05/04 00:14:07;;;;;;;7.93;4.53;;;;;;;;;;5047747;28;20028;-72
2023/05/04 00:16:35;;;;;;;6.70;4.78;;;;;;;;;;5040226;28;20041;-70
2023/05/04 00:19:01;;;;;;;7.53;4.68;;;;;;;;;;5042246;28;20049;-72
2023/05/04 00:21:27;;;;;;;7.85;5.15;;;;;;;;;;5035486;28;20084;-72
2023/05/04 00:23:53;;;;;;;10.63;5.53;;;;;;;;;;5039890;28;20307;-73
2023/05/04 00:26:20;;;;;;;5.93;4.75;;;;;;;;;;5048080;28;20044;-72
2023/05/04 00:28:46;;;;;;;7.85;5.65;;;;;;;;;;5027373;28;20049;-72
2023/05/04 00:31:13;;;;;;;10.68;5.30;;;;;;;;;;5045931;28;20044;-72
2023/05/04 00:33:40;;;;;;;11.45;5.13;;;;;;;;;;5042434;28;20501;-74
2023/05/04 00:36:07;;;;;;;7.57;4.70;;;;;;;;;;5039761;28;20744;-71
2023/05/04 00:38:50;;;;;;;7.90;5.60;;;;;;;;;;5042430;28;20027;-73
2023/05/04 00:41:17;;;;;;;9.48;5.47;;;;;;;;;;5047526;28;20095;-72
2023/05/04 00:43:44;;;;;;;9.50;5.70;;;;;;;;;;5042204;28;20088;-73
2023/05/04 00:46:10;;;;;;;7.93;5.65;;;;;;;;;;5040326;28;20586;-71
2023/05/04 00:48:37;;;;;;;10.45;5.85;;;;;;;;;;5046520;28;20027;-72
2023/05/04 00:51:04;;;;;;;8.40;5.60;;;;;;;;;;5040831;28;20102;-72
2023/05/04 00:53:31;;;;;;;7.75;5.38;;;;;;;;;;5044422;28;20056;-72
2023/05/04 00:55:57;;;;;;;8.18;6.10;;;;;;;;;;5040458;28;20021;-72
2023/05/04 00:58:24;;;;;;;9.30;6.70;;;;;;;;;;5041200;28;20434;-72
2023/05/04 01:00:51;;;;;;;11.63;6.10;;;;;;;;;;5046931;28;20029;-72
2023/05/04 01:03:17;;;;;;;12.00;6.95;;;;;;;;;;5038749;28;20096;-72
2023/05/04 01:05:49;;;;;;;8.70;6.50;;;;;;;;;;5047524;28;20045;-72
2023/05/04 01:08:17;;;;;;;7.70;6.15;;;;;;;;;;5045596;28;20069;-73
2023/05/04 01:10:52;;;;;;;9.05;6.75;;;;;;;;;;5045419;28;20502;-71
2023/05/04 01:13:21;;;;;;;8.73;6.10;;;;;;;;;;5047141;28;20068;-71
2023/05/04 01:15:48;;;;;;;6.45;5.60;;;;;;;;;;5040341;28;20048;-72
2023/05/04 01:18:15;;;;;;;6.68;5.28;;;;;;;;;;5039137;28;20029;-75
2023/05/04 01:20:41;;;;;;;6.18;5.55;;;;;;;;;;5048587;28;20070;-73
2023/05/04 01:23:08;;;;;;;10.13;5.45;;;;;;;;;;5046478;28;20021;-75
2023/05/04 01:25:39;;;;;;;12.27;6.10;;;;;;;;;;5049728;28;20060;-74
2023/05/04 01:28:07;;;;;;;12.88;6.47;;;;;;;;;;5049285;28;20035;-72
2023/05/04 01:30:36;;;;;;;14.77;7.85;;;;;;;;;;5030009;28;20021;-74
2023/05/04 01:33:03;;;;;;;10.20;6.03;;;;;;;;;;5048267;28;20516;-72
2023/05/04 01:35:29;;;;;;;9.93;6.25;;;;;;;;;;5047299;28;20035;-72
2023/05/04 01:37:56;;;;;;;11.80;6.47;;;;;;;;;;5045426;28;20082;-72
2023/05/04 01:40:22;;;;;;;10.57;6.13;;;;;;;;;;5048225;28;20024;-72
2023/05/04 01:42:48;;;;;;;11.80;5.90;;;;;;;;;;5047227;28;20052;-72
2023/05/04 01:45:14;;;;;;;12.45;6.47;;;;;;;;;;5036360;28;20048;-73
2023/05/04 01:47:40;;;;;;;10.13;6.53;;;;;;;;;;5027038;28;20471;-73
2023/05/04 01:50:07;;;;;;;8.00;6.07;;;;;;;;;;5043860;28;20108;-72
2023/05/04 01:52:33;;;;;;;8.02;6.03;;;;;;;;;;5044184;28;20051;-72
2023/05/04 01:54:59;;;;;;;9.32;6.57;;;;;;;;;;5039983;28;20040;-73
2023/05/04 01:57:25;;;;;;;12.63;6.75;;;;;;;;;;5042538;28;20107;-73
2023/05/04 01:59:51;;;;;;;16.83;6.90;;;;;;;;;;5044930;28;20027;-71
2023/05/04 02:02:17;;;;;;;12.10;6.38;;;;;;;;;;5035408;28;20044;-73
2023/05/04 02:04:44;;;;;;;10.27;6.25;;;;;;;;;;5040809;28;20164;-71
2023/05/04 02:07:10;;;;;;;11.88;6.47;;;;;;;;;;5047533;28;20082;-71
2023/05/04 02:09:36;;;;;;;10.63;6.78;;;;;;;;;;5036183;28;20333;-72
2023/05/04 02:12:02;;;;;;;11.38;6.22;;;;;;;;;;5044038;28;20283;-72
2023/05/04 02:14:29;;;;;;;14.00;7.05;;;;;;;;;;5045560;28;20032;-71
2023/05/04 02:16:55;;;;;;;8.25;6.65;;;;;;;;;;5032283;28;20025;-71
2023/05/04 02:19:21;;;;;;;6.55;5.80;;;;;;;;;;5041757;28;20525;-71
2023/05/04 02:21:47;;;;;;;11.55;7.03;;;;;;;;;;5050007;28;20495;-72
2023/05/04 02:24:14;;;;;;;11.05;6.38;;;;;;;;;;5042772;28;20037;-72
2023/05/04 02:26:40;;;;;;;11.25;6.13;;;;;;;;;;5040274;28;20029;-71
2023/05/04 02:29:07;;;;;;;10.88;6.38;;;;;;;;;;5047632;28;20033;-71
2023/05/04 02:31:34;;;;;;;12.52;7.47;;;;;;;;;;5044050;28;20032;-72
2023/05/04 02:34:01;;;;;;;11.60;6.40;;;;;;;;;;5038046;28;20025;-73
2023/05/04 02:36:27;;;;;;;8.98;6.72;;;;;;;;;;5042140;28;20039;-73
2023/05/04 02:38:59;;;;;;;10.70;7.05;;;;;;;;;;5047170;28;20044;-75
2023/05/04 02:41:25;;;;;;;11.75;7.30;;;;;;;;;;5042525;28;20048;-76
2023/05/04 02:43:51;;;;;;;12.35;6.45;;;;;;;;;;5048561;28;20406;-74
2023/05/04 02:46:18;;;;;;;9.63;6.38;;;;;;;;;;5047931;28;20029;-73
2023/05/04 02:48:44;;;;;;;11.55;6.82;;;;;;;;;;5046774;28;20295;-71
2023/05/04 02:51:11;;;;;;;12.00;6.30;;;;;;;;;;5043970;28;20032;-73
2023/05/04 02:53:37;;;;;;;10.25;6.70;;;;;;;;;;5039045;28;20111;-74
2023/05/04 02:56:03;;;;;;;12.80;7.15;;;;;;;;;;5044735;28;20029;-72
2023/05/04 02:58:29;;;;;;;9.52;7.18;;;;;;;;;;5044549;28;20021;-73
2023/05/04 03:00:55;;;;;;;9.85;7.22;;;;;;;;;;5044272;28;20079;-72
2023/05/04 03:03:21;;;;;;;9.52;6.95;;;;;;;;;;5042369;28;20532;-73
2023/05/04 03:05:47;;;;;;;10.25;6.57;;;;;;;;;;5043844;28;20167;-72
2023/05/04 03:08:13;;;;;;;9.25;6.05;;;;;;;;;;5042125;28;20028;-72
2023/05/04 03:10:40;;;;;;;8.88;6.35;;;;;;;;;;5045324;28;20029;-72
2023/05/04 03:13:06;;;;;;;9.73;6.95;;;;;;;;;;5040572;28;20111;-72
2023/05/04 03:15:32;;;;;;;9.07;7.43;;;;;;;;;;5046723;28;20112;-73
2023/05/04 03:17:58;;;;;;;15.63;6.70;;;;;;;;;;5045997;28;20035;-73
2023/05/04 03:20:25;;;;;;;8.95;6.20;;;;;;;;;;5047084;28;20021;-71
2023/05/04 03:22:51;;;;;;;14.43;6.47;;;;;;;;;;5042671;28;20132;-73
2023/05/04 03:25:17;;;;;;;12.90;6.10;;;;;;;;;;5034293;28;20325;-73
2023/05/04 03:27:43;;;;;;;7.82;6.85;;;;;;;;;;5045579;28;20025;-73
2023/05/04 03:30:10;;;;;;;9.43;6.47;;;;;;;;;;5046421;28;20521;-72
2023/05/04 03:32:36;;;;;;;7.82;5.28;;;;;;;;;;5045296;28;20029;-72
2023/05/04 03:35:03;;;;;;;9.35;6.15;;;;;;;;;;5049732;28;20043;-72
2023/05/04 03:37:29;;;;;;;10.13;6.80;;;;;;;;;;5034708;28;20029;-72
2023/05/04 03:39:55;;;;;;;10.43;6.55;;;;;;;;;;5040410;28;20021;-73
2023/05/04 03:42:21;;;;;;;9.55;6.30;;;;;;;;;;5042155;28;20498;-73
2023/05/04 03:44:47;;;;;;;9.63;6.60;;;;;;;;;;5028569;28;20527;-74
2023/05/04 03:47:13;;;;;;;9.93;5.85;;;;;;;;;;5047212;28;20033;-72
2023/05/04 03:49:39;;;;;;;13.13;7.30;;;;;;;;;;5047050;28;20033;-72
2023/05/04 03:52:06;;;;;;;9.55;6.30;;;;;;;;;;5045164;28;20030;-72
2023/05/04 03:54:32;;;;;;;10.60;7.25;;;;;;;;;;5038450;28;20037;-72
2023/05/04 03:56:58;;;;;;;14.25;6.85;;;;;;;;;;5038902;28;20654;-72
2023/05/04 03:59:24;;;;;;;12.88;6.72;;;;;;;;;;5046318;28;20024;-73
2023/05/04 04:01:50;;;;;;;12.80;7.10;;;;;;;;;;5047380;28;20035;-73
2023/05/04 04:04:16;;;;;;;13.68;6.55;;;;;;;;;;5045272;28;20086;-72
2023/05/04 04:06:43;;;;;;;9.23;6.20;;;;;;;;;;5030610;28;20108;-73
2023/05/04 04:09:09;;;;;;;14.82;7.20;;;;;;;;;;5039915;28;20108;-73
2023/05/04 04:11:36;;;;;;;11.07;5.65;;;;;;;;;;5047446;28;20108;-70
2023/05/04 04:14:02;;;;;;;10.07;6.78;;;;;;;;;;5045541;28;20036;-70
2023/05/04 04:16:28;;;;;;;9.75;7.43;;;;;;;;;;5038674;28;20032;-71
2023/05/04 04:18:54;;;;;;;10.75;6.78;;;;;;;;;;5045704;28;20033;-73
2023/05/04 04:21:20;;;;;;;11.90;6.32;;;;;;;;;;5049065;28;20499;-70
2023/05/04 04:23:46;;;;;;;10.00;6.65;;;;;;;;;;5049534;28;20488;-73
2023/05/04 04:26:12;;;;;;;9.85;7.32;;;;;;;;;;5039409;28;20053;-72
2023/05/04 04:28:39;;;;;;;11.32;6.90;;;;;;;;;;5044341;28;20053;-69
2023/05/04 04:31:05;;;;;;;11.30;6.38;;;;;;;;;;5053202;28;20033;-73
2023/05/04 04:33:31;;;;;;;13.80;7.53;;;;;;;;;;5044644;28;20025;-72
2023/05/04 04:35:57;;;;;;;23.60;7.40;;;;;;;;;;5039515;28;20491;-73
2023/05/04 04:38:23;;;;;;;12.23;7.40;;;;;;;;;;5028315;28;20029;-71
2023/05/04 04:40:49;;;;;;;12.02;6.72;;;;;;;;;;5043845;28;20017;-72
2023/05/04 04:43:15;;;;;;;11.90;7.53;;;;;;;;;;5046669;28;20027;-72
2023/05/04 04:45:44;;;;;;;12.25;7.40;;;;;;;;;;5048439;28;20040;-74
2023/05/04 04:48:10;;;;;;;7.57;6.40;;;;;;;;;;5042354;28;20396;-70
2023/05/04 04:50:40;;;;;;;13.63;7.68;;;;;;;;;;5042132;28;20029;-72
2023/05/04 04:53:06;;;;;;;11.13;7.68;;;;;;;;;;5015458;28;20025;-74
2023/05/04 04:55:33;;;;;;;13.18;6.70;;;;;;;;;;5032778;28;20033;-72
2023/05/04 04:58:00;;;;;;;15.07;7.30;;;;;;;;;;5046165;28;20021;-73
2023/05/04 05:00:26;;;;;;;14.18;6.50;;;;;;;;;;5043957;28;20061;-71
2023/05/04 05:02:53;;;;;;;10.70;6.85;;;;;;;;;;5044216;28;20033;-72
2023/05/04 05:05:19;;;;;;;11.43;6.75;;;;;;;;;;5044271;28;20049;-71
2023/05/04 05:07:45;;;;;;;13.45;6.60;;;;;;;;;;5045277;28;20061;-71
2023/05/04 05:10:12;;;;;;;12.10;7.65;;;;;;;;;;5041719;28;20021;-73
2023/05/04 05:12:38;;;;;;;9.60;6.40;;;;;;;;;;5040533;28;20025;-72
2023/05/04 05:15:04;;;;;;;11.93;8.18;;;;;;;;;;5039603;28;20033;-72
2023/05/04 05:17:31;;;;;;;10.18;6.65;;;;;;;;;;5037548;28;20480;-72
2023/05/04 05:19:57;;;;;;;10.35;6.30;;;;;;;;;;5037928;28;20029;-73
2023/05/04 05:22:23;;;;;;;15.15;7.70;;;;;;;;;;5044495;28;20025;-73
2023/05/04 05:24:49;;;;;;;9.43;6.43;;;;;;;;;;5038467;28;20132;-72
2023/05/04 05:27:15;;;;;;;14.30;7.30;;;;;;;;;;5042169;28;20029;-74
2023/05/04 05:29:43;;;;;;;12.48;8.35;;;;;;;;;;5044547;28;20087;-73
2023/05/04 05:32:09;;;;;;;11.20;6.65;;;;;;;;;;5040802;28;20029;-74
2023/05/04 05:34:37;;;;;;;8.90;5.97;;;;;;;;;;5043431;28;20126;-72
2023/05/04 05:37:04;;;;;;;10.57;6.18;;;;;;;;;;5051324;28;20013;-72
2023/05/04 05:39:31;;;;;;;9.23;6.10;;;;;;;;;;5050122;28;20055;-72
2023/05/04 05:41:57;;;;;;;10.15;6.35;;;;;;;;;;5031981;28;20025;-72
2023/05/04 05:44:23;;;;;;;9.45;6.20;;;;;;;;;;5047768;28;20080;-69
2023/05/04 05:46:49;;;;;;;8.63;5.55;;;;;;;;;;5049835;28;20284;-71
2023/05/04 05:49:15;;;;;;;13.25;6.15;;;;;;;;;;5043014;28;20082;-72
2023/05/04 05:51:41;;;;;;;8.38;6.30;;;;;;;;;;5036031;28;20029;-72
2023/05/04 05:54:07;;;;;;;10.93;5.55;;;;;;;;;;5040779;28;20044;-73
2023/05/04 05:56:33;;;;;;;9.48;6.07;;;;;;;;;;5043918;28;20021;-73
2023/05/04 05:59:00;;;;;;;14.70;5.43;;;;;;;;;;5037503;28;20095;-73
2023/05/04 06:01:26;;;;;;;13.40;5.80;;;;;;;;;;5038471;28;20048;-72
2023/05/04 06:03:52;;;;;;;7.90;5.63;;;;;;;;;;5045487;28;20025;-73
2023/05/04 06:06:18;;;;;;;12.27;5.25;;;;;;;;;;5042745;28;20064;-72
2023/05/04 06:08:44;;;;;;;6.60;5.10;;;;;;;;;;5045922;28;20029;-71
2023/05/04 06:11:10;;;;;;;13.63;6.03;;;;;;;;;;5047511;28;20044;-71
2023/05/04 06:13:36;;;;;;;8.65;5.43;;;;;;;;;;5040157;28;20523;-73
2023/05/04 06:16:03;;;;;;;9.95;5.57;;;;;;;;;;5045831;28;20025;-74
2023/05/04 06:18:29;;;;;;;10.15;6.35;;;;;;;;;;5041406;28;20029;-74
2023/05/04 06:20:58;;;;;;;13.43;5.55;;;;;;;;;;5047068;28;20079;-73
2023/05/04 06:23:25;;;;;;;7.90;5.95;;;;;;;;;;5047537;28;20059;-72
2023/05/04 06:25:51;;;;;;;12.23;5.60;;;;;;;;;;5047777;28;20028;-73
2023/05/04 06:28:17;;;;;;;14.23;6.28;;;;;;;;;;5041664;28;20644;-72
2023/05/04 06:30:43;;;;;;;11.70;6.15;;;;;;;;;;5047846;28;20025;-73
2023/05/04 06:33:09;;;;;;;11.07;6.30;;;;;;;;;;5041879;28;20029;-72
2023/05/04 06:35:36;;;;;;;12.25;6.28;;;;;;;;;;5051834;28;20029;-73
2023/05/04 06:38:02;;;;;;;11.32;6.45;;;;;;;;;;5046902;28;20119;-73
2023/05/04 06:40:29;;;;;;;14.93;7.93;;;;;;;;;;5029665;28;20399;-72
2023/05/04 06:42:55;;;;;;;8.93;5.85;;;;;;;;;;5046519;28;20293;-71
2023/05/04 06:45:21;;;;;;;8.80;6.55;;;;;;;;;;5048022;28;20040;-71
2023/05/04 06:47:47;;;;;;;12.52;7.15;;;;;;;;;;5038020;28;20041;-72
2023/05/04 06:50:14;;;;;;;11.40;7.60;;;;;;;;;;5048609;28;20032;-72
2023/05/04 06:52:45;;;;;;;12.02;6.70;;;;;;;;;;5039156;28;20067;-71
2023/05/04 06:55:12;;;;;;;12.05;8.30;;;;;;;;;;5042152;28;20132;-73
2023/05/04 06:57:38;;;;;;;9.27;6.68;;;;;;;;;;5045669;28;20033;-72
2023/05/04 07:00:05;;;;;;;13.40;6.82;;;;;;;;;;5043271;28;20094;-73
2023/05/04 07:02:31;;;;;;;9.80;6.60;;;;;;;;;;5047675;28;20100;-73
2023/05/04 07:04:57;;;;;;;14.32;7.63;;;;;;;;;;5039928;28;20132;-73
2023/05/04 07:07:23;;;;;;;14.10;7.97;;;;;;;;;;5037633;28;20044;-73
2023/05/04 07:09:49;;;;;;;10.98;6.95;;;;;;;;;;5044147;28;20055;-72
2023/05/04 07:12:17;;;;;;;14.10;7.40;;;;;;;;;;5044828;28;20603;-72
2023/05/04 07:14:43;;;;;;;14.10;8.02;;;;;;;;;;5053388;28;20020;-72
2023/05/04 07:17:10;;;;;;;14.40;7.18;;;;;;;;;;5038104;28;20140;-73
2023/05/04 07:19:36;;;;;;;13.35;7.25;;;;;;;;;;5029436;28;20169;-72
2023/05/04 07:22:03;;;;;;;12.70;8.18;;;;;;;;;;5032100;28;20033;-72
2023/05/04 07:24:30;;;;;;;19.60;9.27;;;;;;;;;;5039351;28;20033;-72
2023/05/04 07:26:56;;;;;;;10.80;8.10;;;;;;;;;;5038014;28;20032;-73
2023/05/04 07:29:22;;;;;;;15.35;8.52;;;;;;;;;;5032903;28;20113;-71
2023/05/04 07:31:48;;;;;;;15.02;8.60;;;;;;;;;;5040734;28;20235;-72
2023/05/04 07:34:15;;;;;;;13.38;7.78;;;;;;;;;;5043119;28;20029;-73
2023/05/04 07:36:41;;;;;;;13.85;7.90;;;;;;;;;;5037353;28;21174;-72
2023/05/04 07:39:07;;;;;;;11.75;7.93;;;;;;;;;;5040500;28;20451;-74
2023/05/04 07:41:33;;;;;;;13.63;8.00;;;;;;;;;;5041981;28;20297;-72
2023/05/04 07:43:59;;;;;;;14.98;8.13;;;;;;;;;;5042498;28;20079;-72
2023/05/04 07:46:25;;;;;;;16.13;8.23;;;;;;;;;;5037967;28;21508;-71
2023/05/04 07:48:51;;;;;;;13.85;7.55;;;;;;;;;;5040085;28;20017;-72
2023/05/04 07:51:18;;;;;;;14.20;8.77;;;;;;;;;;5038373;28;20039;-71
2023/05/04 07:53:45;;;;;;;13.13;8.02;;;;;;;;;;5037502;28;20034;-72
2023/05/04 07:56:11;;;;;;;11.85;7.22;;;;;;;;;;5036473;28;20495;-72
2023/05/04 07:58:37;;;;;;;12.50;7.30;;;;;;;;;;5035327;28;20025;-72
2023/05/04 08:01:03;;;;;;;10.32;7.18;;;;;;;;;;5033491;28;20021;-72
2023/05/04 08:03:30;;;;;;;14.50;7.20;;;;;;;;;;5041720;28;20021;-73
2023/05/04 08:05:57;;;;;;;11.32;7.28;;;;;;;;;;5046755;28;20080;-73
2023/05/04 08:08:23;;;;;;;8.98;6.50;;;;;;;;;;5045389;28;20033;-74
2023/05/04 08:10:49;;;;;;;11.68;6.97;;;;;;;;;;5055564;28;20392;-73
2023/05/04 08:13:16;;;;;;;11.23;7.00;;;;;;;;;;5049379;28;20084;-73
2023/05/04 08:15:43;;;;;;;14.38;6.75;;;;;;;;;;5051307;28;20024;-73
2023/05/04 08:18:09;;;;;;;9.18;6.38;;;;;;;;;;5043146;28;20029;-73
2023/05/04 08:20:35;;;;;;;12.85;7.30;;;;;;;;;;5051002;28;20098;-73
2023/05/04 08:23:29;;;;;;;10.57;7.07;;;;;;;;;;5046230;28;20072;-73
2023/05/04 08:25:55;;;;;;;14.43;8.05;;;;;;;;;;5037994;28;20119;-72
2023/05/04 08:28:22;;;;;;;12.13;7.10;;;;;;;;;;5043821;28;20475;-74
2023/05/04 08:30:48;;;;;;;10.02;7.28;;;;;;;;;;5025612;28;20033;-74
2023/05/04 08:33:14;;;;;;;11.73;6.18;;;;;;;;;;5049148;28;20032;-75
2023/05/04 08:35:40;;;;;;;8.50;6.07;;;;;;;;;;5047654;28;20031;-74
2023/05/04 08:38:07;;;;;;;11.20;6.82;;;;;;;;;;5047601;28;20036;-73
2023/05/04 08:40:33;;;;;;;14.48;6.80;;;;;;;;;;5049450;28;20095;-74
2023/05/04 08:43:00;;;;;;;14.32;6.63;;;;;;;;;;5019169;28;20029;-74
2023/05/04 08:45:26;;;;;;;11.38;7.03;;;;;;;;;;5024272;28;20094;-74
2023/05/04 08:47:52;;;;;;;11.38;7.07;;;;;;;;;;5046234;28;20021;-74
2023/05/04 08:50:19;;;;;;;11.75;7.30;;;;;;;;;;5043442;28;20022;-72
2023/05/04 08:52:46;;;;;;;12.45;7.32;;;;;;;;;;5051945;28;20064;-73
2023/05/04 08:55:13;;;;;;;9.18;7.35;;;;;;;;;;5040414;28;20034;-73
2023/05/04 08:57:41;;;;;;;9.82;6.63;;;;;;;;;;5045795;28;20391;-73
2023/05/04 09:00:09;;;;;;;12.18;6.40;;;;;;;;;;5049173;28;20450;-73
2023/05/04 09:02:37;;;;;;;14.05;6.43;;;;;;;;;;5047282;28;20538;-73
2023/05/04 09:05:07;;;;;;;9.73;6.65;;;;;;;;;;5030445;28;20041;-73
2023/05/04 09:07:33;;;;;;;16.83;6.63;;;;;;;;;;5040297;28;20056;-73
2023/05/04 09:10:00;;;;;;;14.63;7.40;;;;;;;;;;5048167;28;20037;-73
2023/05/04 09:12:27;;;;;;;17.80;7.28;;;;;;;;;;5044275;28;20032;-74
2023/05/04 09:14:53;;;;;;;9.52;6.75;;;;;;;;;;5054797;28;20029;-73
2023/05/04 09:17:28;;;;;;;14.18;6.50;;;;;;;;;;5050241;28;20048;-73
2023/05/04 09:20:01;;;;;;;13.27;6.90;;;;;;;;;;5043913;28;20143;-73
2023/05/04 09:22:28;;;;;;;17.08;7.95;;;;;;;;;;5048042;28;20420;-73
2023/05/04 09:25:05;;;;;;;24.25;8.45;;;;;;;;;;5043273;28;20033;-73
2023/05/04 09:27:31;;;;;;;14.27;7.88;;;;;;;;;;5041237;28;20032;-74
2023/05/04 09:29:57;;;;;;;13.40;7.93;;;;;;;;;;5036644;28;20037;-73
2023/05/04 09:32:23;;;;;;;15.35;7.97;;;;;;;;;;5035474;28;20037;-73
2023/05/04 09:34:50;;;;;;;18.98;9.25;;;;;;;;;;5033034;28;20765;-73
2023/05/04 09:37:17;;;;;;;17.50;8.82;;;;;;;;;;5037113;28;20025;-74
2023/05/04 09:40:00;;;;;;;19.42;9.32;;;;;;;;;;5045101;28;20018;-73
2023/05/04 09:42:27;;;;;;;17.40;9.13;;;;;;;;;;5043174;28;20088;-74
2023/05/04 09:45:03;;;;;;;12.88;8.52;;;;;;;;;;5045270;28;20037;-74
2023/05/04 09:47:33;;;;;;;14.80;9.43;;;;;;;;;;5046490;28;20118;-73
2023/05/04 09:49:59;;;;;;;18.50;8.75;;;;;;;;;;5048571;28;20037;-74
2023/05/04 09:52:28;;;;;;;22.33;10.93;;;;;;;;;;5049291;28;20204;-74
2023/05/04 09:54:54;;;;;;;20.80;10.27;;;;;;;;;;5038743;28;20056;-74
2023/05/04 09:57:22;;;;;;;19.85;10.02;;;;;;;;;;5043308;28;20018;-74
2023/05/04 09:59:48;;;;;;;15.80;9.05;;;;;;;;;;5045659;28;20635;-74
2023/05/04 10:02:14;;;;;;;17.67;10.52;;;;;;;;;;5043975;28;20048;-73
2023/05/04 10:04:42;;;;;;;16.20;9.88;;;;;;;;;;5044441;28;20041;-73
2023/05/04 10:07:08;;;;;;;25.25;10.30;;;;;;;;;;5048165;28;20122;-73
2023/05/04 10:09:34;;;;;;;18.70;9.65;;;;;;;;;;5039023;28;20033;-73
2023/05/04 10:12:05;;;;;;;23.08;10.48;;;;;;;;;;5044478;28;20035;-72
2023/05/04 10:14:35;;;;;;;23.73;9.75;;;;;;;;;;5044764;28;20453;-73
2023/05/04 10:17:07;;;;;;;16.95;10.23;;;;;;;;;;5050832;28;20078;-73
2023/05/04 10:19:36;;;;;;;22.30;9.80;;;;;;;;;;5048184;28;20092;-73
2023/05/04 10:22:28;;;;;;;16.52;9.63;;;;;;;;;;5046965;28;20017;-73
2023/05/04 10:25:13;;;;;;;22.55;10.98;;;;;;;;;;5042978;28;20480;-74
2023/05/04 10:27:42;;;;;;;19.85;9.80;;;;;;;;;;5046342;28;20032;-76
2023/05/04 10:30:11;;;;;;;15.60;9.60;;;;;;;;;;5025519;28;20218;-73
2023/05/04 10:32:38;;;;;;;16.98;10.32;;;;;;;;;;5048488;28;20044;-74
2023/05/04 10:35:08;;;;;;;16.10;10.63;;;;;;;;;;5043197;28;20032;-73
2023/05/04 10:37:38;;;;;;;16.45;10.35;;;;;;;;;;5051043;28;20029;-74
2023/05/04 10:40:04;;;;;;;22.95;11.63;;;;;;;;;;5044192;28;20422;-73
2023/05/04 10:42:41;;;;;;;15.13;10.98;;;;;;;;;;5052034;28;20045;-72
2023/05/04 10:45:08;;;;;;;17.25;11.35;;;;;;;;;;5043509;28;20032;-73
2023/05/04 10:47:35;;;;;;;18.52;10.95;;;;;;;;;;5044348;28;20342;-72
2023/05/04 10:50:05;;;;;;;19.85;12.00;;;;;;;;;;5045572;28;20029;-72
2023/05/04 10:52:32;;;;;;;17.00;10.07;;;;;;;;;;5047100;28;20066;-72
2023/05/04 10:54:59;;;;;;;25.75;11.43;;;;;;;;;;5044724;28;20083;-73
2023/05/04 10:57:28;;;;;;;15.32;10.43;;;;;;;;;;5044819;28;20048;-72
2023/05/04 10:59:58;;;;;;;17.73;10.75;;;;;;;;;;5036253;28;20067;-72
2023/05/04 11:02:25;;;;;;;17.67;11.02;;;;;;;;;;5044065;28;20792;-73
2023/05/04 11:05:02;;;;;;;17.92;11.68;;;;;;;;;;5048579;28;20156;-72
2023/05/04 11:07:33;;;;;;;22.65;11.50;;;;;;;;;;5025999;28;20028;-71
2023/05/04 11:09:59;;;;;;;20.80;11.38;;;;;;;;;;5044424;28;20029;-71
2023/05/04 11:12:26;;;;;;;19.02;11.15;;;;;;;;;;5044707;28;20052;-72
2023/05/04 11:15:03;;;;;;;17.00;10.35;;;;;;;;;;5043786;28;20342;-71
2023/05/04 11:17:29;;;;;;;23.48;12.70;;;;;;;;;;5050745;28;20533;-71
2023/05/04 11:19:55;;;;;;;23.52;11.85;;;;;;;;;;5044234;28;20613;-71
2023/05/04 11:22:23;;;;;;;20.48;10.60;;;;;;;;;;5047644;28;20387;-71
2023/05/04 11:24:52;;;;;;;20.00;10.90;;;;;;;;;;5019624;28;20059;-71
2023/05/04 11:27:27;;;;;;;20.95;11.45;;;;;;;;;;5044491;28;20032;-70
2023/05/04 11:29:57;;;;;;;19.00;10.95;;;;;;;;;;5045150;28;20783;-71
2023/05/04 11:32:42;;;;;;;20.70;10.70;;;;;;;;;;5027351;28;20219;-71
2023/05/04 11:35:09;;;;;;;18.38;11.38;;;;;;;;;;5053505;28;20083;-72
2023/05/04 11:37:40;;;;;;;21.50;11.75;;;;;;;;;;5049231;28;20025;-72
2023/05/04 11:40:10;;;;;;;20.65;11.60;;;;;;;;;;5041268;28;20021;-71
2023/05/04 11:42:40;;;;;;;21.10;11.57;;;;;;;;;;5043017;28;20101;-71
2023/05/04 11:45:09;;;;;;;21.50;11.80;;;;;;;;;;5042036;28;20063;-73
2023/05/04 11:47:35;;;;;;;19.85;11.20;;;;;;;;;;5044042;28;20056;-71
2023/05/04 11:50:01;;;;;;;19.00;9.98;;;;;;;;;;5046118;28;20030;-72
2023/05/04 11:52:29;;;;;;;21.40;12.30;;;;;;;;;;5045754;28;20029;-72
2023/05/04 11:54:56;;;;;;;22.27;13.05;;;;;;;;;;5043641;28;20116;-73
2023/05/04 11:57:22;;;;;;;22.73;11.10;;;;;;;;;;5044446;28;20021;-71
2023/05/04 11:59:49;;;;;;;23.02;11.77;;;;;;;;;;5038739;28;20098;-74
2023/05/04 12:02:15;;;;;;;18.60;11.25;;;;;;;;;;5039827;28;20446;-73
2023/05/04 12:04:41;;;;;;;19.08;11.65;;;;;;;;;;5042750;28;20049;-74
2023/05/04 12:07:07;;;;;;;15.75;11.15;;;;;;;;;;5036178;28;20311;-73
2023/05/04 12:09:44;;;;;;;26.10;12.15;;;;;;;;;;5036072;28;20037;-73
2023/05/04 12:12:10;;;;;;;21.83;11.13;;;;;;;;;;5039437;28;20021;-73
2023/05/04 12:14:46;;;;;;;18.20;11.68;;;;;;;;;;5044022;28;20047;-73
2023/05/04 12:17:12;;;;;;;26.10;11.50;;;;;;;;;;5042020;28;20494;-74
2023/05/04 12:19:48;;;;;;;22.30;12.30;;;;;;;;;;5049778;28;20479;-72
2023/05/04 12:22:14;;;;;;;21.73;12.57;;;;;;;;;;5044141;28;20649;-72
2023/05/04 12:24:41;;;;;;;25.85;11.73;;;;;;;;;;5043662;28;20032;-73
2023/05/04 12:27:13;;;;;;;25.42;13.73;;;;;;;;;;5046555;28;20036;-72
2023/05/04 12:29:40;;;;;;;23.17;12.27;;;;;;;;;;5046050;28;20033;-72
2023/05/04 12:32:06;;;;;;;19.70;11.68;;;;;;;;;;5045643;28;20033;-73
2023/05/04 12:34:34;;;;;;;22.45;12.05;;;;;;;;;;5026851;28;20113;-72
2023/05/04 12:37:01;;;;;;;28.67;12.00;;;;;;;;;;5048651;28;20021;-73
2023/05/04 12:39:28;;;;;;;20.80;12.30;;;;;;;;;;5043317;28;20035;-72
2023/05/04 12:41:54;;;;;;;26.50;12.77;;;;;;;;;;5047478;28;20112;-73
2023/05/04 12:44:20;;;;;;;22.80;12.43;;;;;;;;;;5043768;28;20032;-73
2023/05/04 12:46:47;;;;;;;26.17;11.70;;;;;;;;;;5046898;28;20103;-73
2023/05/04 12:49:13;;;;;;;24.63;11.38;;;;;;;;;;5042821;28;20108;-73
2023/05/04 12:51:40;;;;;;;21.30;11.88;;;;;;;;;;5046965;28;20041;-73
2023/05/04 12:54:06;;;;;;;20.45;11.85;;;;;;;;;;5041387;28;20068;-73
2023/05/04 12:56:33;;;;;;;21.65;11.65;;;;;;;;;;5042518;28;20042;-73
2023/05/04 12:58:59;;;;;;;19.75;12.10;;;;;;;;;;5025935;28;20514;-73
2023/05/04 13:01:26;;;;;;;21.05;11.75;;;;;;;;;;5038504;28;20017;-72
2023/05/04 13:03:52;;;;;;;23.17;11.30;;;;;;;;;;5038072;28;20021;-72
2023/05/04 13:06:19;;;;;;;20.10;11.43;;;;;;;;;;5040827;28;20075;-73
2023/05/04 13:08:46;;;;;;;23.50;12.95;;;;;;;;;;5038383;28;20034;-72
2023/05/04 13:11:12;;;;;;;24.08;12.18;;;;;;;;;;5028046;28;20471;-71
2023/05/04 13:13:38;;;;;;;22.02;11.70;;;;;;;;;;5036554;28;20587;-72
2023/05/04 13:16:04;;;;;;;16.75;10.88;;;;;;;;;;5043311;28;20036;-72
2023/05/04 13:18:31;;;;;;;22.55;12.77;;;;;;;;;;5046392;28;20052;-72
2023/05/04 13:20:57;;;;;;;22.52;10.95;;;;;;;;;;5045765;28;20022;-72
2023/05/04 13:23:23;;;;;;;22.90;12.57;;;;;;;;;;5042157;28;20322;-73
2023/05/04 13:25:49;;;;;;;17.20;11.55;;;;;;;;;;5047778;28;20060;-72
2023/05/04 13:28:16;;;;;;;23.88;12.35;;;;;;;;;;5051138;28;20044;-71
2023/05/04 13:30:42;;;;;;;20.52;11.85;;;;;;;;;;5041550;28;20037;-72
2023/05/04 13:33:14;;;;;;;21.27;11.38;;;;;;;;;;5045406;28;20084;-71
2023/05/04 13:35:41;;;;;;;21.60;11.15;;;;;;;;;;5044597;28;20035;-72
2023/05/04 13:38:08;;;;;;;19.02;11.35;;;;;;;;;;5044265;28;20029;-72
2023/05/04 13:40:34;;;;;;;22.88;11.48;;;;;;;;;;5043979;28;20049;-72
2023/05/04 13:43:00;;;;;;;24.70;12.15;;;;;;;;;;5041530;28;20408;-71
2023/05/04 13:45:26;;;;;;;20.48;10.93;;;;;;;;;;5042651;28;20036;-71
2023/05/04 13:47:52;;;;;;;20.83;11.43;;;;;;;;;;5048207;28;20055;-71
2023/05/04 13:50:18;;;;;;;21.95;12.57;;;;;;;;;;5044292;28;20514;-71
2023/05/04 13:52:44;;;;;;;23.45;12.40;;;;;;;;;;5050249;28;20033;-73
2023/05/04 13:55:11;;;;;;;20.70;11.70;;;;;;;;;;5044237;28;20467;-72
2023/05/04 13:57:37;;;;;;;23.95;11.98;;;;;;;;;;5036036;28;20024;-70
2023/05/04 14:00:05;;;;;;;23.80;10.98;;;;;;;;;;5036819;28;20076;-71
2023/05/04 14:02:31;;;;;;;23.95;11.93;;;;;;;;;;5042375;28;20333;-72
2023/05/04 14:04:57;;;;;;;23.23;11.85;;;;;;;;;;5039124;28;20052;-72
2023/05/04 14:07:23;;;;;;;24.35;10.80;;;;;;;;;;5041356;28;20111;-71
2023/05/04 14:09:50;;;;;;;19.38;10.98;;;;;;;;;;5046693;28;20517;-72
2023/05/04 14:12:18;;;;;;;20.13;11.38;;;;;;;;;;5035921;28;20102;-71
2023/05/04 14:14:44;;;;;;;19.58;10.25;;;;;;;;;;5038309;28;20387;-71
2023/05/04 14:17:11;;;;;;;20.42;11.63;;;;;;;;;;5042307;28;20160;-71
2023/05/04 14:19:38;;;;;;;26.35;11.88;;;;;;;;;;5026022;28;20025;-72
2023/05/04 14:22:04;;;;;;;24.15;11.60;;;;;;;;;;5037049;28;20371;-73
2023/05/04 14:24:31;;;;;;;19.35;11.18;;;;;;;;;;5047160;28;20020;-73
2023/05/04 14:26:57;;;;;;;22.35;10.40;;;;;;;;;;5038530;28;20028;-72
2023/05/04 14:29:23;;;;;;;20.23;11.15;;;;;;;;;;5044326;28;20107;-72